Main page
METAR-TAF:

METAR-TAF

Airports :

Oslo Airport. Gardermoen

Oslo, Norway

latitude: 60-12N, longitude: 011-05E, elevation: 208 m

Current weather observation

The report was made 41 minutes ago, at 06:20 UTC
Wind 10 kt from the West/Southwest, varying between South and West/Northwest
Temperature 13°C
Humidity 58%
Pressure 1002 hPa
Visibility 10 km or more
Few clouds at a height of 3500 ft

METAR: ENGM 190620Z 24010KT 190V290 9999 FEW035 13/05 Q1002 NOSIG

Time: 09:01 (07:01 UTC)

Forecast

Forecast valid from 19 at 06 UTC to 20 at 06 UTC
Wind 12 kt from the South
Visibility 10 km or more
Scattered clouds at a height of 4000 ft
Becoming
from 19 at 06 UTC to 19 at 08 UTC
Wind 12 kt from the West
Temporary
from 19 at 12 UTC to 19 at 18 UTC
Wind 15 kt from the West/Southwest with gusts up to 25 kt
Becoming
from 19 at 22 UTC to 19 at 24 UTC
Wind 6 kt from the South

TAF: ENGM 1906/2006 19012KT 9999 SCT040 BECMG 1906/1908 27012KT TEMPO 1912/1918 25015G25KT BECMG 1922/1924 19006KT

Weather observations and forecasts of more than 4000 airports (METAR and TAF reports).

The available stations are represented by yellow and red dots on the map.

Hover mouse over dot to see the name of the station.

Then click to see weather observations and forecasts.

To change the map : click on the green buttons with a black cross to zoom in, on the green button with a dash to zoom out, or on the green arrows for adjacent maps.


METAR-TAF: